sensor_id;sensor_type;location;lat;lon;timestamp;temperature;humidity
81935;DHT22;71405;47.674;-2.050;2023-12-22T00:01:41;18.80;56.20
81935;DHT22;71405;47.674;-2.050;2023-12-22T00:04:07;18.80;56.30
81935;DHT22;71405;47.674;-2.050;2023-12-22T00:06:33;18.80;56.30
81935;DHT22;71405;47.674;-2.050;2023-12-22T00:08:59;18.80;56.20
81935;DHT22;71405;47.674;-2.050;2023-12-22T00:11:24;18.80;56.30
81935;DHT22;71405;47.674;-2.050;2023-12-22T00:13:50;18.80;56.30
81935;DHT22;71405;47.674;-2.050;2023-12-22T00:16:16;18.80;56.20
81935;DHT22;71405;47.674;-2.050;2023-12-22T00:18:41;18.80;56.30
81935;DHT22;71405;47.674;-2.050;2023-12-22T00:21:10;18.80;56.20
81935;DHT22;71405;47.674;-2.050;2023-12-22T00:23:36;18.80;56.20
81935;DHT22;71405;47.674;-2.050;2023-12-22T00:26:03;18.80;56.20
81935;DHT22;71405;47.674;-2.050;2023-12-22T00:28:29;18.80;56.30
81935;DHT22;71405;47.674;-2.050;2023-12-22T00:30:57;18.80;56.30
81935;DHT22;71405;47.674;-2.050;2023-12-22T00:33:24;18.80;56.30
81935;DHT22;71405;47.674;-2.050;2023-12-22T00:35:49;18.80;56.40
81935;DHT22;71405;47.674;-2.050;2023-12-22T00:38:15;18.80;56.30
81935;DHT22;71405;47.674;-2.050;2023-12-22T00:40:40;18.80;56.40
81935;DHT22;71405;47.674;-2.050;2023-12-22T00:43:06;18.80;56.30
81935;DHT22;71405;47.674;-2.050;2023-12-22T00:45:32;18.80;56.40
81935;DHT22;71405;47.674;-2.050;2023-12-22T00:47:57;18.80;56.40
81935;DHT22;71405;47.674;-2.050;2023-12-22T00:50:23;18.80;56.50
81935;DHT22;71405;47.674;-2.050;2023-12-22T00:52:49;18.80;56.40
81935;DHT22;71405;47.674;-2.050;2023-12-22T00:55:14;18.70;56.30
81935;DHT22;71405;47.674;-2.050;2023-12-22T00:57:40;18.70;56.40
81935;DHT22;71405;47.674;-2.050;2023-12-22T01:00:06;18.70;56.30
81935;DHT22;71405;47.674;-2.050;2023-12-22T01:02:36;18.70;56.40
81935;DHT22;71405;47.674;-2.050;2023-12-22T01:05:01;18.80;56.50
81935;DHT22;71405;47.674;-2.050;2023-12-22T01:07:27;18.80;56.50
81935;DHT22;71405;47.674;-2.050;2023-12-22T01:09:53;18.80;56.40
81935;DHT22;71405;47.674;-2.050;2023-12-22T01:12:19;18.80;56.50
81935;DHT22;71405;47.674;-2.050;2023-12-22T01:14:44;18.80;56.50
81935;DHT22;71405;47.674;-2.050;2023-12-22T01:17:11;18.80;56.40
81935;DHT22;71405;47.674;-2.050;2023-12-22T01:19:36;18.80;56.50
81935;DHT22;71405;47.674;-2.050;2023-12-22T01:22:02;18.80;56.50
81935;DHT22;71405;47.674;-2.050;2023-12-22T01:24:28;18.80;56.40
81935;DHT22;71405;47.674;-2.050;2023-12-22T01:26:54;18.80;56.40
81935;DHT22;71405;47.674;-2.050;2023-12-22T01:29:20;18.80;56.40
81935;DHT22;71405;47.674;-2.050;2023-12-22T01:31:45;18.80;56.40
81935;DHT22;71405;47.674;-2.050;2023-12-22T01:34:11;18.80;56.40
81935;DHT22;71405;47.674;-2.050;2023-12-22T01:36:36;18.80;56.50
81935;DHT22;71405;47.674;-2.050;2023-12-22T01:39:02;18.80;56.50
81935;DHT22;71405;47.674;-2.050;2023-12-22T01:41:28;18.80;56.40
81935;DHT22;71405;47.674;-2.050;2023-12-22T01:43:54;18.80;56.50
81935;DHT22;71405;47.674;-2.050;2023-12-22T01:46:20;18.80;56.40
81935;DHT22;71405;47.674;-2.050;2023-12-22T01:48:46;18.80;56.40
81935;DHT22;71405;47.674;-2.050;2023-12-22T01:51:12;18.80;56.40
81935;DHT22;71405;47.674;-2.050;2023-12-22T01:53:38;18.80;56.40
81935;DHT22;71405;47.674;-2.050;2023-12-22T01:56:04;18.80;56.40
81935;DHT22;71405;47.674;-2.050;2023-12-22T01:58:31;18.80;56.50
81935;DHT22;71405;47.674;-2.050;2023-12-22T02:00:58;18.80;56.40
81935;DHT22;71405;47.674;-2.050;2023-12-22T02:03:24;18.80;56.40
81935;DHT22;71405;47.674;-2.050;2023-12-22T02:05:50;18.80;56.30
81935;DHT22;71405;47.674;-2.050;2023-12-22T02:08:18;18.80;56.30
81935;DHT22;71405;47.674;-2.050;2023-12-22T02:10:44;18.80;56.40
81935;DHT22;71405;47.674;-2.050;2023-12-22T02:13:11;18.80;56.40
81935;DHT22;71405;47.674;-2.050;2023-12-22T02:15:37;18.80;56.40
81935;DHT22;71405;47.674;-2.050;2023-12-22T02:18:14;18.80;56.40
81935;DHT22;71405;47.674;-2.050;2023-12-22T02:20:40;18.70;56.30
81935;DHT22;71405;47.674;-2.050;2023-12-22T02:23:06;18.80;56.30
81935;DHT22;71405;47.674;-2.050;2023-12-22T02:25:32;18.80;56.40
81935;DHT22;71405;47.674;-2.050;2023-12-22T02:28:03;18.80;56.30
81935;DHT22;71405;47.674;-2.050;2023-12-22T02:33:04;18.80;56.40
81935;DHT22;71405;47.674;-2.050;2023-12-22T02:35:32;18.80;56.20
81935;DHT22;71405;47.674;-2.050;2023-12-22T02:38:00;18.80;56.30
81935;DHT22;71405;47.674;-2.050;2023-12-22T02:40:27;18.80;56.30
81935;DHT22;71405;47.674;-2.050;2023-12-22T02:42:53;18.80;56.30
81935;DHT22;71405;47.674;-2.050;2023-12-22T02:45:20;18.80;56.30
81935;DHT22;71405;47.674;-2.050;2023-12-22T02:47:46;18.80;56.20
81935;DHT22;71405;47.674;-2.050;2023-12-22T02:50:13;18.80;56.30
81935;DHT22;71405;47.674;-2.050;2023-12-22T02:52:40;18.80;56.30
81935;DHT22;71405;47.674;-2.050;2023-12-22T02:55:06;18.80;56.30
81935;DHT22;71405;47.674;-2.050;2023-12-22T02:57:32;18.80;56.30
81935;DHT22;71405;47.674;-2.050;2023-12-22T02:59:57;18.80;56.40
81935;DHT22;71405;47.674;-2.050;2023-12-22T03:02:23;18.80;56.30
81935;DHT22;71405;47.674;-2.050;2023-12-22T03:04:49;18.80;56.30
81935;DHT22;71405;47.674;-2.050;2023-12-22T03:07:15;18.80;56.40
81935;DHT22;71405;47.674;-2.050;2023-12-22T03:09:42;18.80;56.40
81935;DHT22;71405;47.674;-2.050;2023-12-22T03:12:08;18.80;56.20
81935;DHT22;71405;47.674;-2.050;2023-12-22T03:14:34;18.70;56.20
81935;DHT22;71405;47.674;-2.050;2023-12-22T03:17:01;18.80;56.40
81935;DHT22;71405;47.674;-2.050;2023-12-22T03:19:26;18.80;56.30
81935;DHT22;71405;47.674;-2.050;2023-12-22T03:21:52;18.70;56.40
81935;DHT22;71405;47.674;-2.050;2023-12-22T03:24:18;18.70;56.50
81935;DHT22;71405;47.674;-2.050;2023-12-22T03:26:45;18.70;56.30
81935;DHT22;71405;47.674;-2.050;2023-12-22T03:29:11;18.80;56.40
81935;DHT22;71405;47.674;-2.050;2023-12-22T03:31:37;18.70;56.40
81935;DHT22;71405;47.674;-2.050;2023-12-22T03:34:02;18.80;56.40
81935;DHT22;71405;47.674;-2.050;2023-12-22T03:36:28;18.70;56.30
81935;DHT22;71405;47.674;-2.050;2023-12-22T03:38:54;18.70;56.30
81935;DHT22;71405;47.674;-2.050;2023-12-22T03:41:19;18.80;56.30
81935;DHT22;71405;47.674;-2.050;2023-12-22T03:43:45;18.80;56.30
81935;DHT22;71405;47.674;-2.050;2023-12-22T03:46:11;18.80;56.30
81935;DHT22;71405;47.674;-2.050;2023-12-22T03:48:36;18.80;56.20
81935;DHT22;71405;47.674;-2.050;2023-12-22T03:51:02;18.80;56.20
81935;DHT22;71405;47.674;-2.050;2023-12-22T03:53:28;18.80;56.40
81935;DHT22;71405;47.674;-2.050;2023-12-22T03:55:53;18.80;56.40
81935;DHT22;71405;47.674;-2.050;2023-12-22T03:58:19;18.80;56.30
81935;DHT22;71405;47.674;-2.050;2023-12-22T04:00:45;18.80;56.30
81935;DHT22;71405;47.674;-2.050;2023-12-22T04:03:11;18.80;56.30
81935;DHT22;71405;47.674;-2.050;2023-12-22T04:05:36;18.80;56.20
81935;DHT22;71405;47.674;-2.050;2023-12-22T04:08:02;18.70;56.70
81935;DHT22;71405;47.674;-2.050;2023-12-22T04:10:28;18.90;56.60
81935;DHT22;71405;47.674;-2.050;2023-12-22T04:12:53;19.10;56.00
81935;DHT22;71405;47.674;-2.050;2023-12-22T04:15:19;19.40;55.60
81935;DHT22;71405;47.674;-2.050;2023-12-22T04:17:45;19.50;55.10
81935;DHT22;71405;47.674;-2.050;2023-12-22T04:20:10;19.70;54.90
81935;DHT22;71405;47.674;-2.050;2023-12-22T04:22:36;19.70;54.70
81935;DHT22;71405;47.674;-2.050;2023-12-22T04:25:02;19.80;54.60
81935;DHT22;71405;47.674;-2.050;2023-12-22T04:27:27;19.80;54.50
81935;DHT22;71405;47.674;-2.050;2023-12-22T04:29:53;19.80;54.40
81935;DHT22;71405;47.674;-2.050;2023-12-22T04:32:19;19.90;54.40
81935;DHT22;71405;47.674;-2.050;2023-12-22T04:34:44;19.90;54.20
81935;DHT22;71405;47.674;-2.050;2023-12-22T04:37:10;20.00;54.10
81935;DHT22;71405;47.674;-2.050;2023-12-22T04:39:36;20.00;54.10
81935;DHT22;71405;47.674;-2.050;2023-12-22T04:42:01;20.10;54.00
81935;DHT22;71405;47.674;-2.050;2023-12-22T04:44:27;20.10;54.10
81935;DHT22;71405;47.674;-2.050;2023-12-22T04:46:53;20.20;54.10
81935;DHT22;71405;47.674;-2.050;2023-12-22T04:49:18;20.20;54.10
81935;DHT22;71405;47.674;-2.050;2023-12-22T04:51:44;20.30;54.10
81935;DHT22;71405;47.674;-2.050;2023-12-22T04:54:09;20.30;53.70
81935;DHT22;71405;47.674;-2.050;2023-12-22T04:56:35;20.40;53.60
81935;DHT22;71405;47.674;-2.050;2023-12-22T04:59:01;20.40;53.40
81935;DHT22;71405;47.674;-2.050;2023-12-22T05:01:26;20.50;53.40
81935;DHT22;71405;47.674;-2.050;2023-12-22T05:03:52;20.50;53.10
81935;DHT22;71405;47.674;-2.050;2023-12-22T05:06:19;20.50;53.30
81935;DHT22;71405;47.674;-2.050;2023-12-22T05:08:45;20.50;53.00
81935;DHT22;71405;47.674;-2.050;2023-12-22T05:11:12;20.50;53.00
81935;DHT22;71405;47.674;-2.050;2023-12-22T05:13:37;20.60;53.10
81935;DHT22;71405;47.674;-2.050;2023-12-22T05:16:03;20.60;52.90
81935;DHT22;71405;47.674;-2.050;2023-12-22T05:18:30;20.60;52.80
81935;DHT22;71405;47.674;-2.050;2023-12-22T05:20:55;20.60;52.80
81935;DHT22;71405;47.674;-2.050;2023-12-22T05:23:21;20.70;52.80
81935;DHT22;71405;47.674;-2.050;2023-12-22T05:25:47;20.70;52.50
81935;DHT22;71405;47.674;-2.050;2023-12-22T05:28:13;20.70;52.40
81935;DHT22;71405;47.674;-2.050;2023-12-22T05:30:38;20.80;52.40
81935;DHT22;71405;47.674;-2.050;2023-12-22T05:33:04;20.80;52.20
81935;DHT22;71405;47.674;-2.050;2023-12-22T05:35:30;20.80;52.40
81935;DHT22;71405;47.674;-2.050;2023-12-22T05:37:55;20.90;52.20
81935;DHT22;71405;47.674;-2.050;2023-12-22T05:40:21;20.90;52.10
81935;DHT22;71405;47.674;-2.050;2023-12-22T05:42:47;20.90;52.10
81935;DHT22;71405;47.674;-2.050;2023-12-22T05:45:13;21.00;52.10
81935;DHT22;71405;47.674;-2.050;2023-12-22T05:47:39;21.00;52.00
81935;DHT22;71405;47.674;-2.050;2023-12-22T05:50:05;21.00;52.10
81935;DHT22;71405;47.674;-2.050;2023-12-22T05:52:31;21.00;51.90
81935;DHT22;71405;47.674;-2.050;2023-12-22T05:54:56;21.00;51.90
81935;DHT22;71405;47.674;-2.050;2023-12-22T05:57:24;21.10;51.80
81935;DHT22;71405;47.674;-2.050;2023-12-22T05:59:50;21.10;51.80
81935;DHT22;71405;47.674;-2.050;2023-12-22T06:02:16;21.10;51.80
81935;DHT22;71405;47.674;-2.050;2023-12-22T06:04:41;21.10;51.70
81935;DHT22;71405;47.674;-2.050;2023-12-22T06:07:07;21.10;51.60
81935;DHT22;71405;47.674;-2.050;2023-12-22T06:09:32;21.00;51.80
81935;DHT22;71405;47.674;-2.050;2023-12-22T06:11:58;20.90;52.00
81935;DHT22;71405;47.674;-2.050;2023-12-22T06:14:24;20.80;52.10
81935;DHT22;71405;47.674;-2.050;2023-12-22T06:16:49;20.70;52.20
81935;DHT22;71405;47.674;-2.050;2023-12-22T06:19:16;20.70;52.40
81935;DHT22;71405;47.674;-2.050;2023-12-22T06:21:42;20.60;52.50
81935;DHT22;71405;47.674;-2.050;2023-12-22T06:24:08;20.50;52.50
81935;DHT22;71405;47.674;-2.050;2023-12-22T06:26:34;20.40;52.70
81935;DHT22;71405;47.674;-2.050;2023-12-22T06:28:59;20.30;52.90
81935;DHT22;71405;47.674;-2.050;2023-12-22T06:31:25;20.20;53.10
81935;DHT22;71405;47.674;-2.050;2023-12-22T06:33:51;20.10;53.20
81935;DHT22;71405;47.674;-2.050;2023-12-22T06:36:20;20.10;53.20
81935;DHT22;71405;47.674;-2.050;2023-12-22T06:38:47;20.00;53.40
81935;DHT22;71405;47.674;-2.050;2023-12-22T06:41:23;19.90;53.50
81935;DHT22;71405;47.674;-2.050;2023-12-22T06:43:49;19.90;53.50
81935;DHT22;71405;47.674;-2.050;2023-12-22T06:46:17;19.90;53.70
81935;DHT22;71405;47.674;-2.050;2023-12-22T06:48:42;19.80;53.60
81935;DHT22;71405;47.674;-2.050;2023-12-22T06:51:17;19.80;53.60
81935;DHT22;71405;47.674;-2.050;2023-12-22T06:53:43;19.80;53.70
81935;DHT22;71405;47.674;-2.050;2023-12-22T06:56:19;19.80;53.80
81935;DHT22;71405;47.674;-2.050;2023-12-22T06:58:46;19.70;53.90
81935;DHT22;71405;47.674;-2.050;2023-12-22T07:01:18;19.70;54.10
81935;DHT22;71405;47.674;-2.050;2023-12-22T07:03:45;19.60;54.00
81935;DHT22;71405;47.674;-2.050;2023-12-22T07:06:11;19.60;54.00
81935;DHT22;71405;47.674;-2.050;2023-12-22T07:08:37;19.50;54.20
81935;DHT22;71405;47.674;-2.050;2023-12-22T07:11:03;19.50;54.20
81935;DHT22;71405;47.674;-2.050;2023-12-22T07:13:28;19.50;54.20
81935;DHT22;71405;47.674;-2.050;2023-12-22T07:15:54;19.50;54.20
81935;DHT22;71405;47.674;-2.050;2023-12-22T07:18:19;19.50;54.30
81935;DHT22;71405;47.674;-2.050;2023-12-22T07:20:45;19.40;54.30
81935;DHT22;71405;47.674;-2.050;2023-12-22T07:23:11;19.40;54.80
81935;DHT22;71405;47.674;-2.050;2023-12-22T07:25:37;19.40;54.70
81935;DHT22;71405;47.674;-2.050;2023-12-22T07:28:04;19.40;55.40
81935;DHT22;71405;47.674;-2.050;2023-12-22T07:30:30;19.40;56.60
81935;DHT22;71405;47.674;-2.050;2023-12-22T07:32:56;19.40;57.30
81935;DHT22;71405;47.674;-2.050;2023-12-22T07:35:21;19.40;56.90
81935;DHT22;71405;47.674;-2.050;2023-12-22T07:37:48;19.40;57.80
81935;DHT22;71405;47.674;-2.050;2023-12-22T07:40:13;19.40;57.50
81935;DHT22;71405;47.674;-2.050;2023-12-22T07:42:39;19.40;57.50
81935;DHT22;71405;47.674;-2.050;2023-12-22T07:45:05;19.30;57.50
81935;DHT22;71405;47.674;-2.050;2023-12-22T07:47:32;19.30;57.60
81935;DHT22;71405;47.674;-2.050;2023-12-22T07:49:58;19.30;57.70
81935;DHT22;71405;47.674;-2.050;2023-12-22T07:52:23;19.20;57.70
81935;DHT22;71405;47.674;-2.050;2023-12-22T07:54:49;19.20;58.00
81935;DHT22;71405;47.674;-2.050;2023-12-22T07:57:15;19.20;57.90
81935;DHT22;71405;47.674;-2.050;2023-12-22T07:59:40;19.20;57.90
81935;DHT22;71405;47.674;-2.050;2023-12-22T08:02:06;19.10;57.90
81935;DHT22;71405;47.674;-2.050;2023-12-22T08:04:32;19.10;58.00
81935;DHT22;71405;47.674;-2.050;2023-12-22T08:06:57;19.10;58.20
81935;DHT22;71405;47.674;-2.050;2023-12-22T08:09:23;19.10;58.10
81935;DHT22;71405;47.674;-2.050;2023-12-22T08:11:49;19.00;58.20
81935;DHT22;71405;47.674;-2.050;2023-12-22T08:14:21;19.00;58.10
81935;DHT22;71405;47.674;-2.050;2023-12-22T08:16:47;19.00;58.10
81935;DHT22;71405;47.674;-2.050;2023-12-22T08:19:12;19.00;58.30
81935;DHT22;71405;47.674;-2.050;2023-12-22T08:21:38;18.90;58.40
81935;DHT22;71405;47.674;-2.050;2023-12-22T08:24:04;18.90;58.50
81935;DHT22;71405;47.674;-2.050;2023-12-22T08:26:30;18.90;58.10
81935;DHT22;71405;47.674;-2.050;2023-12-22T08:28:55;18.90;57.80
81935;DHT22;71405;47.674;-2.050;2023-12-22T08:31:21;18.90;57.80
81935;DHT22;71405;47.674;-2.050;2023-12-22T08:33:46;18.90;57.70
81935;DHT22;71405;47.674;-2.050;2023-12-22T08:36:12;18.90;57.70
81935;DHT22;71405;47.674;-2.050;2023-12-22T08:38:38;18.90;58.00
81935;DHT22;71405;47.674;-2.050;2023-12-22T08:41:07;18.80;57.80
81935;DHT22;71405;47.674;-2.050;2023-12-22T08:43:33;18.80;57.80
81935;DHT22;71405;47.674;-2.050;2023-12-22T08:46:00;18.80;58.00
81935;DHT22;71405;47.674;-2.050;2023-12-22T08:48:25;18.80;58.00
81935;DHT22;71405;47.674;-2.050;2023-12-22T08:50:51;18.80;58.00
81935;DHT22;71405;47.674;-2.050;2023-12-22T08:53:17;18.70;58.00
81935;DHT22;71405;47.674;-2.050;2023-12-22T08:55:42;18.70;57.70
81935;DHT22;71405;47.674;-2.050;2023-12-22T08:58:08;18.70;57.90
81935;DHT22;71405;47.674;-2.050;2023-12-22T09:00:33;18.70;57.70
81935;DHT22;71405;47.674;-2.050;2023-12-22T09:02:59;18.70;57.80
81935;DHT22;71405;47.674;-2.050;2023-12-22T09:05:25;18.70;57.60
81935;DHT22;71405;47.674;-2.050;2023-12-22T09:07:50;18.70;57.80
81935;DHT22;71405;47.674;-2.050;2023-12-22T09:10:16;18.70;57.90
81935;DHT22;71405;47.674;-2.050;2023-12-22T09:12:42;18.70;57.90
81935;DHT22;71405;47.674;-2.050;2023-12-22T09:15:07;18.70;57.70
81935;DHT22;71405;47.674;-2.050;2023-12-22T09:17:33;18.70;57.80
81935;DHT22;71405;47.674;-2.050;2023-12-22T09:20:00;18.60;57.90
81935;DHT22;71405;47.674;-2.050;2023-12-22T09:22:25;18.60;57.60
81935;DHT22;71405;47.674;-2.050;2023-12-22T09:24:51;18.60;57.70
81935;DHT22;71405;47.674;-2.050;2023-12-22T09:27:17;18.60;57.60
81935;DHT22;71405;47.674;-2.050;2023-12-22T09:29:42;18.60;57.70
81935;DHT22;71405;47.674;-2.050;2023-12-22T09:32:08;18.60;57.90
81935;DHT22;71405;47.674;-2.050;2023-12-22T09:34:33;18.60;57.60
81935;DHT22;71405;47.674;-2.050;2023-12-22T09:36:59;18.60;57.50
81935;DHT22;71405;47.674;-2.050;2023-12-22T09:39:25;18.60;57.50
81935;DHT22;71405;47.674;-2.050;2023-12-22T09:41:52;18.60;57.50
81935;DHT22;71405;47.674;-2.050;2023-12-22T09:44:20;18.60;57.70
81935;DHT22;71405;47.674;-2.050;2023-12-22T09:46:48;18.60;57.50
81935;DHT22;71405;47.674;-2.050;2023-12-22T09:49:17;18.60;57.70
81935;DHT22;71405;47.674;-2.050;2023-12-22T09:51:44;18.60;57.70
81935;DHT22;71405;47.674;-2.050;2023-12-22T09:54:10;18.60;57.60
81935;DHT22;71405;47.674;-2.050;2023-12-22T09:56:37;18.60;57.50
81935;DHT22;71405;47.674;-2.050;2023-12-22T09:59:11;18.60;57.80
81935;DHT22;71405;47.674;-2.050;2023-12-22T10:01:44;18.60;57.60
81935;DHT22;71405;47.674;-2.050;2023-12-22T10:04:13;18.60;57.70
81935;DHT22;71405;47.674;-2.050;2023-12-22T10:06:39;18.70;58.00
81935;DHT22;71405;47.674;-2.050;2023-12-22T10:09:05;18.80;57.80
81935;DHT22;71405;47.674;-2.050;2023-12-22T10:11:33;19.00;57.30
81935;DHT22;71405;47.674;-2.050;2023-12-22T10:14:00;19.30;57.10
81935;DHT22;71405;47.674;-2.050;2023-12-22T10:16:28;19.50;56.80
81935;DHT22;71405;47.674;-2.050;2023-12-22T10:18:54;19.60;56.30
81935;DHT22;71405;47.674;-2.050;2023-12-22T10:21:19;19.70;55.80
81935;DHT22;71405;47.674;-2.050;2023-12-22T10:23:45;19.80;55.60
81935;DHT22;71405;47.674;-2.050;2023-12-22T10:26:12;19.80;55.30
81935;DHT22;71405;47.674;-2.050;2023-12-22T10:28:37;19.80;55.20
81935;DHT22;71405;47.674;-2.050;2023-12-22T10:31:03;19.80;54.90
81935;DHT22;71405;47.674;-2.050;2023-12-22T10:33:32;19.90;54.70
81935;DHT22;71405;47.674;-2.050;2023-12-22T10:36:01;20.00;55.00
81935;DHT22;71405;47.674;-2.050;2023-12-22T10:38:36;20.00;54.80
81935;DHT22;71405;47.674;-2.050;2023-12-22T10:41:02;20.10;54.70
81935;DHT22;71405;47.674;-2.050;2023-12-22T10:43:29;20.10;54.70
81935;DHT22;71405;47.674;-2.050;2023-12-22T10:45:55;20.20;54.50
81935;DHT22;71405;47.674;-2.050;2023-12-22T10:48:24;20.20;54.10
81935;DHT22;71405;47.674;-2.050;2023-12-22T10:50:50;20.30;54.10
81935;DHT22;71405;47.674;-2.050;2023-12-22T10:53:15;20.30;54.30
81935;DHT22;71405;47.674;-2.050;2023-12-22T10:55:41;20.30;54.00
81935;DHT22;71405;47.674;-2.050;2023-12-22T10:58:07;20.40;53.80
81935;DHT22;71405;47.674;-2.050;2023-12-22T11:00:39;20.40;53.50
81935;DHT22;71405;47.674;-2.050;2023-12-22T11:03:08;20.50;53.30
81935;DHT22;71405;47.674;-2.050;2023-12-22T11:05:37;20.50;53.20
81935;DHT22;71405;47.674;-2.050;2023-12-22T11:08:07;20.60;53.10
81935;DHT22;71405;47.674;-2.050;2023-12-22T11:10:41;20.60;53.10
81935;DHT22;71405;47.674;-2.050;2023-12-22T11:13:09;20.70;53.10
81935;DHT22;71405;47.674;-2.050;2023-12-22T11:15:36;20.70;52.90
81935;DHT22;71405;47.674;-2.050;2023-12-22T11:18:04;20.70;52.80
81935;DHT22;71405;47.674;-2.050;2023-12-22T11:20:30;20.80;52.80
81935;DHT22;71405;47.674;-2.050;2023-12-22T11:22:59;20.80;52.70
81935;DHT22;71405;47.674;-2.050;2023-12-22T11:25:25;20.90;52.60
81935;DHT22;71405;47.674;-2.050;2023-12-22T11:27:52;20.90;52.50
81935;DHT22;71405;47.674;-2.050;2023-12-22T11:30:20;20.90;52.30
81935;DHT22;71405;47.674;-2.050;2023-12-22T11:32:47;20.90;52.20
81935;DHT22;71405;47.674;-2.050;2023-12-22T11:35:14;20.90;52.30
81935;DHT22;71405;47.674;-2.050;2023-12-22T11:37:42;20.90;52.20
81935;DHT22;71405;47.674;-2.050;2023-12-22T11:40:09;20.90;52.20
81935;DHT22;71405;47.674;-2.050;2023-12-22T11:42:42;21.00;52.20
81935;DHT22;71405;47.674;-2.050;2023-12-22T11:45:12;20.90;52.10
81935;DHT22;71405;47.674;-2.050;2023-12-22T11:47:38;21.00;52.10
81935;DHT22;71405;47.674;-2.050;2023-12-22T11:50:09;21.00;52.00
81935;DHT22;71405;47.674;-2.050;2023-12-22T11:52:36;21.10;52.00
81935;DHT22;71405;47.674;-2.050;2023-12-22T11:55:01;21.00;51.90
81935;DHT22;71405;47.674;-2.050;2023-12-22T11:59:58;21.10;51.80
81935;DHT22;71405;47.674;-2.050;2023-12-22T12:02:26;21.10;51.70
81935;DHT22;71405;47.674;-2.050;2023-12-22T12:04:53;21.10;51.70
81935;DHT22;71405;47.674;-2.050;2023-12-22T12:08:06;21.10;51.80
81935;DHT22;71405;47.674;-2.050;2023-12-22T12:13:11;21.00;51.90
81935;DHT22;71405;47.674;-2.050;2023-12-22T12:15:38;20.90;52.00
81935;DHT22;71405;47.674;-2.050;2023-12-22T12:18:05;20.80;52.20
81935;DHT22;71405;47.674;-2.050;2023-12-22T12:20:32;20.70;52.30
81935;DHT22;71405;47.674;-2.050;2023-12-22T12:22:58;20.60;52.60
81935;DHT22;71405;47.674;-2.050;2023-12-22T12:25:28;20.50;52.70
81935;DHT22;71405;47.674;-2.050;2023-12-22T12:28:07;20.50;52.70
81935;DHT22;71405;47.674;-2.050;2023-12-22T12:30:38;20.40;52.80
81935;DHT22;71405;47.674;-2.050;2023-12-22T12:33:08;20.30;53.00
81935;DHT22;71405;47.674;-2.050;2023-12-22T12:35:34;20.20;53.00
81935;DHT22;71405;47.674;-2.050;2023-12-22T12:38:00;20.10;53.20
81935;DHT22;71405;47.674;-2.050;2023-12-22T12:40:27;20.00;53.40
81935;DHT22;71405;47.674;-2.050;2023-12-22T12:42:58;20.00;53.50
81935;DHT22;71405;47.674;-2.050;2023-12-22T12:45:24;19.90;53.60
81935;DHT22;71405;47.674;-2.050;2023-12-22T12:47:56;19.90;53.50
81935;DHT22;71405;47.674;-2.050;2023-12-22T12:50:24;20.00;53.50
81935;DHT22;71405;47.674;-2.050;2023-12-22T12:52:51;20.00;53.50
81935;DHT22;71405;47.674;-2.050;2023-12-22T12:55:20;19.90;53.50
81935;DHT22;71405;47.674;-2.050;2023-12-22T12:57:53;19.80;53.60
81935;DHT22;71405;47.674;-2.050;2023-12-22T13:00:32;19.80;53.70
81935;DHT22;71405;47.674;-2.050;2023-12-22T13:03:10;19.70;53.70
81935;DHT22;71405;47.674;-2.050;2023-12-22T13:05:35;19.70;53.90
81935;DHT22;71405;47.674;-2.050;2023-12-22T13:10:36;19.70;54.10
81935;DHT22;71405;47.674;-2.050;2023-12-22T13:13:02;19.70;54.20
81935;DHT22;71405;47.674;-2.050;2023-12-22T13:15:29;19.70;54.30
81935;DHT22;71405;47.674;-2.050;2023-12-22T13:17:55;19.70;54.50
81935;DHT22;71405;47.674;-2.050;2023-12-22T13:20:21;19.70;54.60
81935;DHT22;71405;47.674;-2.050;2023-12-22T13:22:47;19.60;54.40
81935;DHT22;71405;47.674;-2.050;2023-12-22T13:25:13;19.70;54.60
81935;DHT22;71405;47.674;-2.050;2023-12-22T13:27:49;19.70;54.50
81935;DHT22;71405;47.674;-2.050;2023-12-22T13:30:37;19.70;54.60
81935;DHT22;71405;47.674;-2.050;2023-12-22T13:33:06;19.60;54.70
81935;DHT22;71405;47.674;-2.050;2023-12-22T13:35:35;19.60;54.80
81935;DHT22;71405;47.674;-2.050;2023-12-22T13:38:05;19.60;54.80
81935;DHT22;71405;47.674;-2.050;2023-12-22T13:40:32;19.50;54.80
81935;DHT22;71405;47.674;-2.050;2023-12-22T13:42:58;19.60;54.80
81935;DHT22;71405;47.674;-2.050;2023-12-22T13:45:27;19.50;54.70
81935;DHT22;71405;47.674;-2.050;2023-12-22T13:47:53;19.50;54.70
81935;DHT22;71405;47.674;-2.050;2023-12-22T13:50:19;19.50;54.70
81935;DHT22;71405;47.674;-2.050;2023-12-22T13:52:48;19.50;54.70
81935;DHT22;71405;47.674;-2.050;2023-12-22T13:55:17;19.40;54.70
81935;DHT22;71405;47.674;-2.050;2023-12-22T13:57:44;19.40;54.90
81935;DHT22;71405;47.674;-2.050;2023-12-22T14:02:45;19.40;54.90
81935;DHT22;71405;47.674;-2.050;2023-12-22T14:05:10;19.40;54.90
81935;DHT22;71405;47.674;-2.050;2023-12-22T14:07:37;19.40;54.80
81935;DHT22;71405;47.674;-2.050;2023-12-22T14:10:06;19.40;54.80
81935;DHT22;71405;47.674;-2.050;2023-12-22T14:12:31;19.30;54.80
81935;DHT22;71405;47.674;-2.050;2023-12-22T14:14:57;19.30;54.90
81935;DHT22;71405;47.674;-2.050;2023-12-22T14:17:23;19.30;54.90
81935;DHT22;71405;47.674;-2.050;2023-12-22T14:19:48;19.30;54.80
81935;DHT22;71405;47.674;-2.050;2023-12-22T14:22:15;19.30;54.90
81935;DHT22;71405;47.674;-2.050;2023-12-22T14:24:41;19.30;55.00
81935;DHT22;71405;47.674;-2.050;2023-12-22T14:27:06;19.30;54.90
81935;DHT22;71405;47.674;-2.050;2023-12-22T14:29:32;19.30;55.00
81935;DHT22;71405;47.674;-2.050;2023-12-22T14:31:59;19.30;55.00
81935;DHT22;71405;47.674;-2.050;2023-12-22T14:34:25;19.20;54.90
81935;DHT22;71405;47.674;-2.050;2023-12-22T14:36:51;19.20;55.00
81935;DHT22;71405;47.674;-2.050;2023-12-22T14:39:16;19.20;55.00
81935;DHT22;71405;47.674;-2.050;2023-12-22T14:41:42;19.20;55.00
81935;DHT22;71405;47.674;-2.050;2023-12-22T14:44:08;19.20;55.00
81935;DHT22;71405;47.674;-2.050;2023-12-22T14:46:38;19.20;55.00
81935;DHT22;71405;47.674;-2.050;2023-12-22T14:49:04;19.20;55.00
81935;DHT22;71405;47.674;-2.050;2023-12-22T14:51:43;19.10;55.00
81935;DHT22;71405;47.674;-2.050;2023-12-22T14:54:09;19.20;55.00
81935;DHT22;71405;47.674;-2.050;2023-12-22T14:56:38;19.10;55.00
81935;DHT22;71405;47.674;-2.050;2023-12-22T14:59:04;19.10;55.10
81935;DHT22;71405;47.674;-2.050;2023-12-22T15:01:30;19.10;55.00
81935;DHT22;71405;47.674;-2.050;2023-12-22T15:03:58;19.10;55.10
81935;DHT22;71405;47.674;-2.050;2023-12-22T15:06:24;19.10;55.30
81935;DHT22;71405;47.674;-2.050;2023-12-22T15:08:50;19.00;55.30
81935;DHT22;71405;47.674;-2.050;2023-12-22T15:11:15;19.00;55.30
81935;DHT22;71405;47.674;-2.050;2023-12-22T15:13:41;19.00;55.40
81935;DHT22;71405;47.674;-2.050;2023-12-22T15:16:07;19.00;55.50
81935;DHT22;71405;47.674;-2.050;2023-12-22T15:18:33;19.00;55.70
81935;DHT22;71405;47.674;-2.050;2023-12-22T15:20:59;19.00;55.60
81935;DHT22;71405;47.674;-2.050;2023-12-22T15:23:24;18.90;55.60
81935;DHT22;71405;47.674;-2.050;2023-12-22T15:25:51;18.90;55.60